createdAt,value
2022-11-24T00:01:15.058Z,2.80
2022-11-24T00:03:41.927Z,2.95
2022-11-24T00:06:13.461Z,3.05
2022-11-24T00:08:44.749Z,3.17
2022-11-24T00:11:15.344Z,2.60
2022-11-24T00:13:41.950Z,2.67
2022-11-24T00:16:11.444Z,2.53
2022-11-24T00:18:39.851Z,2.95
2022-11-24T00:21:06.717Z,2.40
2022-11-24T00:23:34.041Z,2.15
2022-11-24T00:26:13.838Z,2.40
2022-11-24T00:28:41.481Z,2.67
2022-11-24T00:31:41.430Z,2.88
2022-11-24T00:34:11.551Z,2.40
2022-11-24T00:36:39.428Z,1.98
2022-11-24T00:39:12.702Z,2.50
2022-11-24T00:41:39.430Z,2.10
2022-11-24T00:44:05.989Z,2.47
2022-11-24T00:46:32.892Z,2.22
2022-11-24T00:48:59.594Z,2.33
2022-11-24T00:51:27.604Z,2.67
2022-11-24T00:53:54.415Z,2.25
2022-11-24T00:56:20.836Z,2.20
2022-11-24T00:58:47.235Z,2.20
2022-11-24T01:01:16.357Z,1.95
2022-11-24T01:03:42.878Z,2.10
2022-11-24T01:06:12.941Z,2.10
2022-11-24T01:08:40.500Z,1.88
2022-11-24T01:11:18.655Z,2.40
2022-11-24T01:13:47.619Z,1.88
2022-11-24T01:16:21.274Z,2.00
2022-11-24T01:18:47.969Z,2.40
2022-11-24T01:21:15.245Z,2.03
2022-11-24T01:23:41.869Z,2.42
2022-11-24T01:26:11.314Z,2.25
2022-11-24T01:28:41.833Z,2.20
2022-11-24T01:31:11.914Z,2.10
2022-11-24T01:33:39.144Z,1.92
2022-11-24T01:36:06.375Z,2.15
2022-11-24T01:38:33.050Z,2.42
2022-11-24T01:41:10.043Z,2.47
2022-11-24T01:43:36.686Z,2.80
2022-11-24T01:46:34.030Z,1.95
2022-11-24T01:49:06.319Z,2.65
2022-11-24T01:51:36.867Z,2.33
2022-11-24T01:54:10.513Z,2.53
2022-11-24T01:56:41.657Z,2.38
2022-11-24T01:59:13.260Z,2.38
2022-11-24T02:01:40.094Z,2.72
2022-11-24T02:04:12.860Z,2.65
2022-11-24T02:06:41.388Z,2.60
2022-11-24T02:09:41.315Z,2.80
2022-11-24T02:12:08.542Z,2.22
2022-11-24T02:14:37.809Z,2.60
2022-11-24T02:17:04.248Z,2.40
2022-11-24T02:19:39.529Z,2.70
2022-11-24T02:22:15.699Z,2.30
2022-11-24T02:24:55.292Z,2.50
2022-11-24T02:27:27.959Z,2.17
2022-11-24T02:29:58.494Z,2.60
2022-11-24T02:32:31.359Z,2.20
2022-11-24T02:35:02.989Z,2.78
2022-11-24T02:37:29.613Z,2.90
2022-11-24T02:39:56.390Z,2.55
2022-11-24T02:42:25.031Z,2.55
2022-11-24T02:44:57.338Z,2.53
2022-11-24T02:47:24.192Z,2.90
2022-11-24T02:49:50.848Z,2.75
2022-11-24T02:52:17.531Z,2.90
2022-11-24T02:54:44.320Z,2.67
2022-11-24T02:57:11.066Z,2.60
2022-11-24T02:59:38.614Z,2.97
2022-11-24T03:02:05.565Z,3.30
2022-11-24T03:04:32.635Z,3.42
2022-11-24T03:06:59.615Z,3.30
2022-11-24T03:09:26.161Z,3.23
2022-11-24T03:11:52.823Z,3.78
2022-11-24T03:14:19.655Z,4.13
2022-11-24T03:16:46.279Z,4.07
2022-11-24T03:19:13.624Z,4.55
2022-11-24T03:21:40.174Z,4.30
2022-11-24T03:24:07.025Z,3.42
2022-11-24T03:26:37.111Z,3.20
2022-11-24T03:29:16.748Z,3.08
2022-11-24T03:31:44.442Z,3.20
2022-11-24T03:34:13.287Z,3.63
2022-11-24T03:36:39.873Z,3.35
2022-11-24T03:39:06.557Z,3.78
2022-11-24T03:41:33.385Z,3.22
2022-11-24T03:44:01.622Z,3.47
2022-11-24T03:46:30.067Z,3.60
2022-11-24T03:48:57.125Z,4.03
2022-11-24T03:51:23.828Z,3.65
2022-11-24T03:53:50.499Z,3.30
2022-11-24T03:56:17.590Z,3.50
2022-11-24T03:58:44.220Z,3.00
2022-11-24T04:01:10.966Z,2.80
2022-11-24T04:03:37.697Z,3.92
2022-11-24T04:06:04.516Z,2.60
2022-11-24T04:08:32.344Z,2.30
2022-11-24T04:10:59.134Z,3.10
2022-11-24T04:13:29.755Z,2.35
2022-11-24T04:15:59.175Z,2.45
2022-11-24T04:18:25.998Z,2.38
2022-11-24T04:20:52.883Z,2.20
2022-11-24T04:23:19.977Z,1.90
2022-11-24T04:25:47.102Z,1.65
2022-11-24T04:28:13.854Z,2.10
2022-11-24T04:30:40.921Z,1.80
2022-11-24T04:33:07.615Z,1.90
2022-11-24T04:35:35.620Z,1.73
2022-11-24T04:38:03.281Z,2.30
2022-11-24T04:40:29.856Z,2.10
2022-11-24T04:42:56.997Z,1.80
2022-11-24T04:45:24.560Z,2.30
2022-11-24T04:47:51.293Z,2.80
2022-11-24T04:50:18.375Z,3.45
2022-11-24T04:52:45.025Z,3.90
2022-11-24T04:55:12.204Z,3.80
2022-11-24T04:57:39.104Z,3.90
2022-11-24T05:00:07.038Z,4.00
2022-11-24T05:02:34.095Z,3.45
2022-11-24T05:05:01.045Z,3.10
2022-11-24T05:07:27.815Z,2.67
2022-11-24T05:09:59.179Z,2.20
2022-11-24T05:12:28.903Z,2.70
2022-11-24T05:14:55.597Z,2.28
2022-11-24T05:17:22.237Z,2.42
2022-11-24T05:19:48.928Z,2.30
2022-11-24T05:22:16.209Z,2.50
2022-11-24T05:24:42.907Z,2.60
2022-11-24T05:27:10.067Z,2.47
2022-11-24T05:29:36.749Z,2.40
2022-11-24T05:32:03.502Z,2.47
2022-11-24T05:34:31.672Z,2.50
2022-11-24T05:37:01.172Z,3.00
2022-11-24T05:39:34.527Z,2.80
2022-11-24T05:42:05.706Z,2.25
2022-11-24T05:44:34.779Z,2.40
2022-11-24T05:47:01.878Z,2.40
2022-11-24T05:49:28.829Z,2.30
2022-11-24T05:51:55.620Z,2.70
2022-11-24T05:54:22.807Z,2.80
2022-11-24T05:56:49.491Z,2.65
2022-11-24T05:59:16.270Z,2.30
2022-11-24T06:01:43.214Z,2.40
2022-11-24T06:04:10.007Z,2.50
2022-11-24T06:06:36.727Z,2.20
2022-11-24T06:09:03.498Z,2.40
2022-11-24T06:11:30.142Z,2.42
2022-11-24T06:14:00.282Z,2.80
2022-11-24T06:16:27.271Z,2.38
2022-11-24T06:18:54.080Z,2.75
2022-11-24T06:21:20.894Z,2.55
2022-11-24T06:23:48.680Z,2.90
2022-11-24T06:26:15.536Z,2.70
2022-11-24T06:28:42.258Z,2.92
2022-11-24T06:31:10.374Z,2.83
2022-11-24T06:33:38.127Z,3.28
2022-11-24T06:36:07.382Z,2.92
2022-11-24T06:38:36.232Z,2.70
2022-11-24T06:41:31.625Z,3.55
2022-11-24T06:44:11.843Z,3.55
2022-11-24T06:46:38.488Z,5.07
2022-11-24T06:49:05.335Z,5.47
2022-11-24T06:51:31.848Z,5.60
2022-11-24T06:53:58.553Z,6.45
2022-11-24T06:56:25.377Z,6.78
2022-11-24T06:58:53.834Z,6.47
2022-11-24T07:01:26.160Z,6.47
2022-11-24T07:03:54.123Z,6.80
2022-11-24T07:06:23.172Z,5.57
2022-11-24T07:08:50.851Z,5.85
2022-11-24T07:11:23.040Z,5.40
2022-11-24T07:13:53.688Z,6.25
2022-11-24T07:16:25.889Z,5.80
2022-11-24T07:18:54.136Z,9.48
2022-11-24T07:21:22.930Z,6.35
2022-11-24T07:23:53.266Z,4.60
2022-11-24T07:26:21.205Z,4.10
2022-11-24T07:28:48.570Z,4.37
2022-11-24T07:32:13.970Z,4.70
2022-11-24T07:34:40.807Z,4.30
2022-11-24T07:37:08.757Z,3.90
2022-11-24T07:39:35.919Z,3.80
2022-11-24T07:42:05.428Z,3.67
2022-11-24T07:44:32.273Z,3.67
2022-11-24T07:47:03.354Z,3.97
2022-11-24T07:49:30.169Z,3.63
2022-11-24T07:52:01.541Z,4.20
2022-11-24T07:54:28.681Z,3.57
2022-11-24T07:56:55.706Z,3.92
2022-11-24T07:59:25.520Z,3.75
2022-11-24T08:01:52.317Z,3.63
2022-11-24T08:04:18.918Z,3.40
2022-11-24T08:06:47.501Z,3.47
2022-11-24T08:09:14.776Z,3.00
2022-11-24T08:11:41.451Z,3.67
2022-11-24T08:14:08.362Z,3.60
2022-11-24T08:16:35.298Z,3.70
2022-11-24T08:19:02.257Z,4.90
2022-11-24T08:21:29.032Z,4.85
2022-11-24T08:23:57.226Z,4.50
2022-11-24T08:26:28.368Z,4.38
2022-11-24T08:28:58.845Z,4.70
2022-11-24T08:31:28.225Z,5.03
2022-11-24T08:33:58.323Z,5.57
2022-11-24T08:36:26.179Z,5.20
2022-11-24T08:38:58.144Z,4.95
2022-11-24T08:41:26.355Z,5.60
2022-11-24T08:43:54.072Z,6.03
2022-11-24T08:46:21.211Z,5.25
2022-11-24T08:48:53.023Z,4.72
2022-11-24T08:51:22.708Z,5.05
2022-11-24T08:53:49.659Z,5.20
2022-11-24T08:56:16.287Z,4.60
2022-11-24T08:58:43.048Z,4.90
2022-11-24T09:01:15.187Z,5.50
2022-11-24T09:03:50.120Z,4.03
2022-11-24T09:06:23.764Z,4.00
2022-11-24T09:08:51.750Z,4.03
2022-11-24T09:11:19.029Z,3.90
2022-11-24T09:13:46.169Z,3.40
2022-11-24T09:16:24.425Z,3.30
2022-11-24T09:18:59.524Z,3.33
2022-11-24T09:21:26.727Z,3.53
2022-11-24T09:23:54.737Z,3.60
2022-11-24T09:26:27.123Z,3.50
2022-11-24T09:28:55.897Z,2.95
2022-11-24T09:31:31.605Z,3.00
2022-11-24T09:33:58.592Z,3.50
2022-11-24T09:36:25.244Z,3.25
2022-11-24T09:38:52.408Z,3.10
2022-11-24T09:41:37.657Z,2.58
2022-11-24T09:44:25.687Z,3.10
2022-11-24T09:47:07.619Z,2.93
2022-11-24T09:49:51.095Z,3.13
2022-11-24T09:52:33.409Z,2.92
2022-11-24T09:55:03.357Z,3.35
2022-11-24T09:57:37.467Z,3.03
2022-11-24T10:00:13.837Z,3.23
2022-11-24T10:02:40.502Z,2.58
2022-11-24T10:05:08.779Z,3.50
2022-11-24T10:07:46.474Z,2.75
2022-11-24T10:10:24.187Z,3.10
2022-11-24T10:13:21.216Z,2.87
2022-11-24T10:15:59.958Z,3.72
2022-11-24T10:18:51.397Z,3.10
2022-11-24T10:21:34.781Z,3.15
2022-11-24T10:24:34.385Z,3.13
2022-11-24T10:27:16.367Z,2.80
2022-11-24T10:29:43.473Z,2.80
2022-11-24T10:32:24.101Z,2.40
2022-11-24T10:34:50.897Z,2.80
2022-11-24T10:37:40.702Z,2.72
2022-11-24T10:40:33.062Z,2.83
2022-11-24T10:42:59.723Z,2.70
2022-11-24T10:45:28.706Z,3.00
2022-11-24T10:47:57.364Z,2.80
2022-11-24T10:50:25.439Z,3.22
2022-11-24T10:53:14.078Z,2.47
2022-11-24T10:55:55.810Z,2.80
2022-11-24T10:58:29.536Z,2.72
2022-11-24T11:01:20.505Z,2.63
2022-11-24T11:03:50.326Z,3.20
2022-11-24T11:06:34.906Z,2.80
2022-11-24T11:09:07.483Z,2.70
2022-11-24T11:11:35.977Z,2.88
2022-11-24T11:14:04.986Z,2.92
2022-11-24T11:16:39.447Z,2.70
2022-11-24T11:19:47.859Z,3.30
2022-11-24T11:22:12.427Z,3.03
2022-11-24T11:24:41.420Z,3.20
2022-11-24T11:27:23.734Z,3.05
2022-11-24T11:35:40.232Z,2.83
2022-11-24T11:38:08.136Z,3.10
2022-11-24T11:40:35.508Z,3.10
2022-11-24T11:43:15.348Z,2.80
2022-11-24T11:45:45.842Z,2.17
2022-11-24T11:48:33.717Z,2.85
2022-11-24T11:51:25.899Z,3.05
2022-11-24T11:54:06.783Z,3.35
2022-11-24T11:56:39.475Z,2.67
2022-11-24T11:59:27.308Z,3.10
2022-11-24T12:01:59.921Z,2.70
2022-11-24T12:04:44.401Z,3.00
2022-11-24T12:07:16.873Z,3.15
2022-11-24T12:09:52.237Z,2.90
2022-11-24T12:12:37.487Z,2.90
2022-11-24T12:15:10.262Z,2.80
2022-11-24T12:17:57.707Z,2.80
2022-11-24T12:21:08.178Z,2.90
2022-11-24T12:24:05.378Z,2.63
2022-11-24T12:27:22.443Z,2.27
2022-11-24T12:30:20.900Z,2.35
2022-11-24T12:33:02.526Z,2.33
2022-11-24T12:35:52.256Z,2.35
2022-11-24T12:38:36.920Z,2.08
2022-11-24T12:41:42.979Z,2.60
2022-11-24T12:44:52.813Z,2.70
2022-11-24T12:47:37.288Z,2.33
2022-11-24T12:50:12.924Z,2.50
2022-11-24T12:52:58.702Z,2.30
2022-11-24T12:55:28.931Z,2.37
2022-11-24T12:58:13.997Z,2.58
2022-11-24T13:00:53.729Z,2.42
2022-11-24T13:03:57.934Z,2.42
2022-11-24T13:06:33.895Z,2.20
2022-11-24T13:09:08.149Z,2.40
2022-11-24T13:11:39.261Z,2.00
2022-11-24T13:14:15.121Z,2.35
2022-11-24T13:17:13.389Z,2.20
2022-11-24T13:19:37.781Z,2.35
2022-11-24T13:22:07.129Z,2.13
2022-11-24T13:24:38.697Z,2.30
2022-11-24T13:27:14.374Z,2.17
2022-11-24T13:29:42.977Z,2.10
2022-11-24T13:32:09.587Z,1.90
2022-11-24T13:34:39.127Z,2.10
2022-11-24T13:37:28.851Z,2.30
2022-11-24T13:40:14.223Z,2.10
2022-11-24T13:42:57.057Z,2.05
2022-11-24T13:45:41.915Z,2.28
2022-11-24T13:48:21.384Z,2.53
2022-11-24T13:50:51.305Z,2.20
2022-11-24T13:53:33.059Z,2.40
2022-11-24T13:56:03.344Z,4.70
2022-11-24T13:58:41.821Z,2.22
2022-11-24T14:01:12.987Z,2.20
2022-11-24T14:04:30.539Z,2.13
2022-11-24T14:07:07.803Z,2.03
2022-11-24T14:09:39.733Z,2.20
2022-11-24T14:12:24.185Z,1.75
2022-11-24T14:14:52.992Z,2.27
2022-11-24T14:17:27.923Z,2.03
2022-11-24T14:19:58.509Z,2.10
2022-11-24T14:22:33.141Z,2.20
2022-11-24T14:25:01.819Z,2.20
2022-11-24T14:27:40.330Z,2.10
2022-11-24T14:30:09.782Z,2.38
2022-11-24T14:32:36.701Z,2.10
2022-11-24T14:35:23.008Z,1.67
2022-11-24T14:37:49.644Z,2.00
2022-11-24T14:40:55.430Z,2.27
2022-11-24T14:43:25.153Z,1.88
2022-11-24T14:46:17.909Z,2.13
2022-11-24T14:48:49.699Z,2.20
2022-11-24T14:51:30.723Z,2.45
2022-11-24T14:54:03.023Z,1.90
2022-11-24T14:56:33.431Z,2.95
2022-11-24T14:59:00.243Z,2.20
2022-11-24T15:01:26.781Z,1.90
2022-11-24T15:07:23.288Z,2.20
2022-11-24T15:09:58.904Z,2.00
2022-11-24T15:12:53.710Z,2.63
2022-11-24T15:15:26.180Z,2.30
2022-11-24T15:17:58.389Z,3.00
2022-11-24T15:20:40.479Z,3.30
2022-11-24T15:23:35.386Z,2.30
2022-11-24T15:26:01.885Z,2.42
2022-11-24T15:28:30.691Z,1.70
2022-11-24T15:31:03.142Z,2.20
2022-11-24T15:33:31.657Z,2.30
2022-11-24T15:35:59.374Z,2.10
2022-11-24T15:38:26.259Z,2.58
2022-11-24T15:40:54.965Z,2.40
2022-11-24T15:43:29.675Z,2.67
2022-11-24T15:45:56.929Z,2.97
2022-11-24T15:48:24.108Z,3.13
2022-11-24T15:50:51.908Z,3.30
2022-11-24T15:53:40.874Z,3.05
2022-11-24T15:56:14.531Z,2.80
2022-11-24T15:58:41.041Z,2.97
2022-11-24T16:01:07.737Z,2.90
2022-11-24T16:03:49.751Z,2.90
2022-11-24T16:06:25.442Z,2.63
2022-11-24T16:08:55.536Z,2.72
2022-11-24T16:11:22.963Z,3.10
2022-11-24T16:13:53.045Z,3.13
2022-11-24T16:16:21.828Z,3.92
2022-11-24T16:18:48.535Z,4.18
2022-11-24T16:21:15.121Z,3.88
2022-11-24T16:23:41.799Z,3.13
2022-11-24T16:26:10.225Z,3.55
2022-11-24T16:28:36.867Z,3.42
2022-11-24T16:31:03.661Z,3.53
2022-11-24T16:33:30.316Z,3.20
2022-11-24T16:35:57.375Z,2.73
2022-11-24T16:38:24.215Z,3.30
2022-11-24T16:40:55.127Z,3.00
2022-11-24T16:43:22.104Z,3.03
2022-11-24T16:46:03.340Z,3.47
2022-11-24T16:48:33.952Z,3.37
2022-11-24T16:51:08.807Z,3.35
2022-11-24T16:53:36.104Z,3.20
2022-11-24T16:56:02.804Z,3.10
2022-11-24T16:58:29.405Z,3.33
2022-11-24T17:01:03.182Z,3.10
2022-11-24T17:03:33.592Z,3.20
2022-11-24T17:06:00.965Z,2.90
2022-11-24T17:08:31.143Z,3.33
2022-11-24T17:10:58.388Z,3.20
2022-11-24T17:13:25.235Z,3.67
2022-11-24T17:15:54.379Z,3.30
2022-11-24T17:18:25.432Z,3.58
2022-11-24T17:20:52.575Z,3.80
2022-11-24T17:23:19.236Z,3.70
2022-11-24T17:25:45.853Z,4.20
2022-11-24T17:28:12.570Z,3.88
2022-11-24T17:30:39.252Z,3.65
2022-11-24T17:33:07.354Z,4.18
2022-11-24T17:35:34.717Z,3.88
2022-11-24T17:38:01.586Z,3.20
2022-11-24T17:40:29.436Z,3.53
2022-11-24T17:43:00.418Z,3.50
2022-11-24T17:45:28.382Z,3.67
2022-11-24T17:47:55.675Z,4.10
2022-11-24T17:50:25.699Z,3.70
2022-11-24T17:52:53.828Z,3.17
2022-11-24T17:55:20.499Z,3.30
2022-11-24T17:57:47.172Z,2.97
2022-11-24T18:00:14.329Z,3.55
2022-11-24T18:02:43.113Z,3.30
2022-11-24T18:05:09.763Z,3.38
2022-11-24T18:07:36.496Z,3.22
2022-11-24T18:10:03.550Z,3.75
2022-11-24T18:12:30.141Z,3.33
2022-11-24T18:14:57.891Z,4.43
2022-11-24T18:17:24.485Z,4.38
2022-11-24T18:19:51.045Z,3.78
2022-11-24T18:22:19.085Z,3.50
2022-11-24T18:24:50.219Z,3.60
2022-11-24T18:27:16.773Z,3.80
2022-11-24T18:29:43.525Z,3.10
2022-11-24T18:32:10.142Z,3.80
2022-11-24T18:34:37.014Z,3.75
2022-11-24T18:37:03.677Z,3.83
2022-11-24T18:39:30.338Z,3.30
2022-11-24T18:41:56.956Z,3.42
2022-11-24T18:44:23.451Z,3.50
2022-11-24T18:46:50.117Z,3.60
2022-11-24T18:49:16.870Z,3.50
2022-11-24T18:51:43.660Z,3.93
2022-11-24T18:54:10.311Z,5.13
2022-11-24T18:56:36.847Z,3.90
2022-11-24T18:59:03.398Z,4.50
2022-11-24T19:01:30.747Z,4.03
2022-11-24T19:04:00.464Z,3.80
2022-11-24T19:06:37.092Z,3.58
2022-11-24T19:09:11.089Z,3.58
2022-11-24T19:11:39.867Z,3.60
2022-11-24T19:14:08.118Z,3.95
2022-11-24T19:16:35.627Z,3.97
2022-11-24T19:19:02.368Z,3.53
2022-11-24T19:21:33.667Z,3.65
2022-11-24T19:24:04.824Z,3.70
2022-11-24T19:26:33.335Z,3.95
2022-11-24T19:28:59.896Z,3.80
2022-11-24T19:31:26.491Z,4.00
2022-11-24T19:33:53.131Z,3.58
2022-11-24T19:36:22.574Z,4.07
2022-11-24T19:38:51.847Z,3.88
2022-11-24T19:41:19.734Z,3.70
2022-11-24T19:43:46.612Z,3.58
2022-11-24T19:46:15.598Z,4.00
2022-11-24T19:48:52.583Z,3.90
2022-11-24T19:51:22.633Z,3.50
2022-11-24T19:53:49.255Z,4.00
2022-11-24T19:56:24.906Z,4.22
2022-11-24T19:58:52.612Z,4.22
2022-11-24T20:01:28.329Z,4.50
2022-11-24T20:04:03.067Z,3.17
2022-11-24T20:06:32.300Z,4.00
2022-11-24T20:08:59.954Z,4.88
2022-11-24T20:11:28.148Z,3.83
2022-11-24T20:13:55.617Z,3.35
2022-11-24T20:16:24.266Z,3.50
2022-11-24T20:18:50.942Z,3.90
2022-11-24T20:21:20.784Z,3.60
2022-11-24T20:23:54.322Z,4.00
2022-11-24T20:26:22.849Z,3.70
2022-11-24T20:28:50.271Z,3.55
2022-11-24T20:31:20.554Z,4.07
2022-11-24T20:33:47.352Z,4.28
2022-11-24T20:36:17.214Z,3.75
2022-11-24T20:38:45.279Z,3.70
2022-11-24T20:41:18.048Z,3.40
2022-11-24T20:43:45.707Z,3.93
2022-11-24T20:46:23.719Z,4.15
2022-11-24T20:48:51.452Z,4.03
2022-11-24T20:51:27.344Z,3.83
2022-11-24T20:53:57.277Z,3.70
2022-11-24T20:56:31.001Z,4.17
2022-11-24T20:58:58.442Z,3.75
2022-11-24T21:01:32.994Z,3.63
2022-11-24T21:04:00.196Z,3.60
2022-11-24T21:06:27.967Z,3.60
2022-11-24T21:08:58.986Z,3.63
2022-11-24T21:11:29.003Z,3.88
2022-11-24T21:13:56.065Z,3.50
2022-11-24T21:16:26.686Z,3.30
2022-11-24T21:18:58.507Z,3.60
2022-11-24T21:21:27.898Z,3.90
2022-11-24T21:23:56.648Z,3.78
2022-11-24T21:26:23.329Z,3.60
2022-11-24T21:28:50.278Z,3.50
2022-11-24T21:31:20.059Z,3.47
2022-11-24T21:33:48.845Z,3.83
2022-11-24T21:36:18.711Z,3.78
2022-11-24T21:38:50.587Z,3.47
2022-11-24T21:41:17.245Z,4.22
2022-11-24T21:43:46.836Z,3.97
2022-11-24T21:46:13.608Z,3.27
2022-11-24T21:48:41.114Z,3.70
2022-11-24T21:51:13.129Z,3.50
2022-11-24T21:53:40.352Z,3.55
2022-11-24T21:56:12.414Z,3.88
2022-11-24T21:59:02.010Z,3.73
2022-11-24T22:01:29.207Z,3.60
2022-11-24T22:03:56.087Z,3.85
2022-11-24T22:06:22.708Z,3.65
2022-11-24T22:08:49.779Z,4.10
2022-11-24T22:11:17.808Z,3.60
2022-11-24T22:13:44.673Z,3.90
2022-11-24T22:16:19.101Z,4.03
2022-11-24T22:18:46.256Z,3.70
2022-11-24T22:21:15.722Z,3.95
2022-11-24T22:23:42.968Z,4.10
2022-11-24T22:26:12.628Z,4.22
2022-11-24T22:28:39.765Z,4.50
2022-11-24T22:31:12.507Z,4.00
2022-11-24T22:33:39.373Z,4.28
2022-11-24T22:36:07.320Z,3.83
2022-11-24T22:38:34.945Z,3.90
2022-11-24T22:41:08.437Z,4.20
2022-11-24T22:43:37.079Z,4.57
2022-11-24T22:46:08.417Z,4.30
2022-11-24T22:48:35.269Z,4.00
2022-11-24T22:51:08.160Z,4.50
2022-11-24T22:53:36.228Z,4.30
2022-11-24T22:56:05.525Z,4.60
2022-11-24T22:58:33.003Z,4.30
2022-11-24T23:01:11.520Z,4.50
2022-11-24T23:03:39.335Z,4.90
2022-11-24T23:06:09.949Z,4.60
2022-11-24T23:08:36.724Z,4.43
2022-11-24T23:11:09.276Z,5.15
2022-11-24T23:13:36.746Z,4.60
2022-11-24T23:16:15.527Z,4.28
2022-11-24T23:18:43.744Z,5.05
2022-11-24T23:21:18.970Z,5.20
2022-11-24T23:23:46.561Z,5.25
2022-11-24T23:26:17.271Z,4.60
2022-11-24T23:28:44.053Z,4.32
2022-11-24T23:31:14.260Z,4.63
2022-11-24T23:33:41.377Z,4.82
2022-11-24T23:36:09.706Z,4.13
2022-11-24T23:38:38.523Z,4.57
2022-11-24T23:41:10.643Z,4.30
2022-11-24T23:43:40.546Z,4.43
2022-11-24T23:46:19.998Z,4.40
2022-11-24T23:48:47.242Z,4.05
2022-11-24T23:51:18.979Z,4.30
2022-11-24T23:53:49.214Z,4.10
2022-11-24T23:56:21.775Z,4.68
2022-11-24T23:58:48.332Z,4.18
